Time;durP1;ratioP1;P1;durP2;ratioP2;P2;SDS_P1;SDS_P2;PMS_P1;PMS_P2;Temp;Humidity;BMP_temperature;BMP_pressure;BME280_temperature;BME280_humidity;BME280_pressure;Samples;Min_cycle;Max_cycle;Signal;HPM_P1;HPM_P2
2022/10/12 00:01:02;;;;;;;;;8.67;8.67;;;;;12.11;79.76;101895.75;5081196;27;45457;-78
2022/10/12 00:03:27;;;;;;;;;12.00;8.00;;;;;12.13;79.63;101904.44;5081106;27;45330;-79
2022/10/12 00:06:04;;;;;;;;;9.00;7.67;;;;;12.15;79.55;101905.09;5113999;27;45842;-78
2022/10/12 00:08:31;;;;;;;;;6.33;6.33;;;;;12.11;79.48;101909.06;5096793;27;47151;-78
2022/10/12 00:10:57;;;;;;;;;9.33;9.33;;;;;11.97;79.58;101900.63;5080991;28;45552;-79
2022/10/12 00:13:22;;;;;;;;;8.33;7.00;;;;;11.98;79.75;101904.94;5079365;28;45269;-79
2022/10/12 00:15:48;;;;;;;;;7.67;7.67;;;;;11.93;79.84;101901.91;5079358;27;47343;-79
2022/10/12 00:18:14;;;;;;;;;7.67;7.67;;;;;11.90;79.84;101890.72;5081055;28;45916;-78
2022/10/12 00:20:39;;;;;;;;;8.33;7.00;;;;;11.89;80.27;101895.22;5080856;27;45289;-79
2022/10/12 00:23:04;;;;;;;;;8.00;7.33;;;;;11.89;79.94;101894.38;5079729;27;45325;-78
2022/10/12 00:25:30;;;;;;;;;8.00;8.00;;;;;11.78;80.11;101888.31;5080919;28;45298;-79
2022/10/12 00:27:55;;;;;;;;;8.00;8.00;;;;;11.73;80.32;101890.59;5079632;28;47328;-79
2022/10/12 00:30:20;;;;;;;;;9.33;7.67;;;;;11.76;80.16;101894.78;5080753;27;45542;-79
2022/10/12 00:32:46;;;;;;;;;8.33;8.33;;;;;11.80;80.27;101906.81;5080704;27;45399;-79
2022/10/12 00:35:11;;;;;;;;;8.00;7.00;;;;;11.43;80.46;101848.25;5081139;27;45232;-79
2022/10/12 00:37:36;;;;;;;;;11.00;10.00;;;;;11.71;80.44;101892.59;5080521;27;45326;-79
2022/10/12 00:40:02;;;;;;;;;11.67;10.67;;;;;11.79;80.50;101903.28;5080970;27;45343;-79
2022/10/12 00:42:28;;;;;;;;;8.00;8.00;;;;;11.77;80.50;101891.97;5080722;27;45520;-79
2022/10/12 00:44:53;;;;;;;;;8.33;8.33;;;;;11.84;80.15;101906.34;5079199;28;47084;-79
2022/10/12 00:47:24;;;;;;;;;10.00;8.00;;;;;11.84;80.38;101900.19;5080554;27;45964;-79
2022/10/12 00:50:22;;;;;;;;;8.33;8.33;;;;;11.79;79.88;101897.16;5096412;27;45561;-79
2022/10/12 00:53:03;;;;;;;;;7.67;7.67;;;;;11.79;79.96;101911.28;5090775;27;45333;-78
2022/10/12 00:55:35;;;;;;;;;9.00;9.00;;;;;11.71;79.98;101912.03;5096216;27;45403;-79
2022/10/12 00:58:03;;;;;;;;;8.67;8.67;;;;;11.67;80.24;101901.88;5080131;27;46178;-79
2022/10/12 01:00:28;;;;;;;;;13.00;9.00;;;;;11.64;80.62;101907.50;5080229;27;45457;-79
2022/10/12 01:02:54;;;;;;;;;9.00;9.00;;;;;11.65;80.50;101912.69;5079013;28;45429;-79
2022/10/12 01:05:21;;;;;;;;;8.67;8.67;;;;;11.66;80.47;101909.03;5080348;28;45371;-79
2022/10/12 01:07:46;;;;;;;;;12.33;10.67;;;;;11.55;80.57;101899.44;5080312;27;45338;-79
2022/10/12 01:10:12;;;;;;;;;10.33;9.67;;;;;11.19;80.44;101851.50;5095970;27;45360;-79
2022/10/12 01:12:41;;;;;;;;;8.00;6.67;;;;;11.49;80.63;101900.03;5066556;28;45240;-79
2022/10/12 01:15:07;;;;;;;;;9.00;9.00;;;;;11.52;80.76;101904.25;5078832;27;46367;-79
2022/10/12 01:17:47;;;;;;;;;10.67;9.33;;;;;11.49;80.78;101906.19;5078386;28;47630;-78
2022/10/12 01:20:44;;;;;;;;;10.33;10.33;;;;;11.47;80.75;101904.69;5095648;27;46082;-78
2022/10/12 01:23:15;;;;;;;;;9.67;8.67;;;;;11.45;80.77;101898.66;5075202;28;45416;-79
2022/10/12 01:25:53;;;;;;;;;11.33;10.67;;;;;11.42;80.44;101896.31;5108065;27;46021;-79
2022/10/12 01:28:46;;;;;;;;;9.00;9.00;;;;;11.38;80.65;101894.94;5079878;28;45591;-79
2022/10/12 01:31:30;;;;;;;;;9.00;9.00;;;;;11.31;80.71;101889.41;5079738;28;45286;-79
2022/10/12 01:34:09;;;;;;;;;8.00;8.00;;;;;11.16;81.09;101870.44;5078578;28;45264;-79
2022/10/12 01:36:36;;;;;;;;;9.00;9.00;;;;;11.26;80.93;101897.00;5067358;28;45326;-79
2022/10/12 01:39:25;;;;;;;;;9.67;8.67;;;;;11.23;81.01;101898.94;5112560;27;47104;-79
2022/10/12 01:41:55;;;;;;;;;6.00;6.00;;;;;11.21;80.99;101892.09;5079363;28;45220;-79
2022/10/12 01:44:23;;;;;;;;;10.00;10.00;;;;;11.20;81.00;101898.44;5079627;27;45396;-79
2022/10/12 01:46:51;;;;;;;;;11.67;9.00;;;;;11.20;81.27;101888.59;5079496;27;45449;-79
2022/10/12 01:49:20;;;;;;;;;10.33;10.00;;;;;11.19;81.00;101897.59;5078088;28;47567;-79
2022/10/12 01:51:52;;;;;;;;;9.00;9.00;;;;;11.05;80.93;101882.94;5079702;27;45480;-79
2022/10/12 01:54:55;;;;;;;;;7.67;7.67;;;;;11.11;81.06;101893.00;5095301;27;45276;-79
2022/10/12 01:57:35;;;;;;;;;11.33;11.33;;;;;11.04;80.97;101891.94;5069973;28;45633;-79
2022/10/12 02:00:08;;;;;;;;;12.67;12.67;;;;;11.01;81.10;101886.91;5079070;27;45590;-79
2022/10/12 02:02:52;;;;;;;;;8.00;7.00;;;;;10.87;81.06;101866.97;5095061;27;46153;-79
2022/10/12 02:05:39;;;;;;;;;9.00;9.00;;;;;10.95;81.44;101882.16;5079184;27;45512;-79
2022/10/12 02:08:22;;;;;;;;;10.00;10.00;;;;;10.92;81.32;101879.84;5094993;27;45695;-79
2022/10/12 02:10:59;;;;;;;;;10.00;10.00;;;;;10.90;81.42;101869.34;5091558;27;47249;-79
2022/10/12 02:13:30;;;;;;;;;9.00;9.00;;;;;10.84;81.23;101861.97;5072068;28;45408;-80
2022/10/12 02:15:59;;;;;;;;;9.00;8.33;;;;;10.86;81.35;101870.59;5111846;27;45238;-80
2022/10/12 02:18:27;;;;;;;;;10.00;9.33;;;;;10.80;81.62;101861.41;5079172;28;45323;-80
2022/10/12 02:20:54;;;;;;;;;9.33;9.33;;;;;10.73;81.83;101866.50;5078917;27;46724;-79
2022/10/12 02:23:23;;;;;;;;;11.33;11.33;;;;;10.68;81.62;101852.78;5079232;27;45421;-79
2022/10/12 02:25:52;;;;;;;;;9.00;9.00;;;;;10.80;81.90;101868.53;5079106;27;45608;-80
2022/10/12 02:28:21;;;;;;;;;11.33;10.33;;;;;10.73;81.92;101874.47;5077880;28;46679;-79
2022/10/12 02:30:59;;;;;;;;;11.33;11.33;;;;;10.70;81.83;101869.44;5094234;27;47362;-80
2022/10/12 02:33:34;;;;;;;;;8.67;8.67;;;;;10.70;81.83;101866.78;5079157;27;45520;-79
2022/10/12 02:36:07;;;;;;;;;10.33;10.33;;;;;10.65;81.60;101849.59;5081020;27;45312;-79
2022/10/12 02:38:38;;;;;;;;;13.67;12.00;;;;;10.61;81.63;101849.06;5082663;27;45271;-80
2022/10/12 02:41:14;;;;;;;;;10.67;10.67;;;;;10.58;81.76;101849.34;5082325;27;46571;-80
2022/10/12 02:43:59;;;;;;;;;14.00;11.00;;;;;10.60;82.04;101855.34;5082673;27;45351;-79
2022/10/12 02:46:27;;;;;;;;;10.00;9.00;;;;;10.59;81.72;101853.66;5097904;27;45288;-80
2022/10/12 02:48:55;;;;;;;;;8.67;8.67;;;;;10.58;82.07;101860.81;5081097;28;45477;-79
2022/10/12 02:51:23;;;;;;;;;12.00;10.00;;;;;10.56;82.21;101852.13;5097946;27;47180;-79
2022/10/12 02:53:49;;;;;;;;;8.00;7.00;;;;;10.43;82.30;101838.31;5082399;27;45416;-79
2022/10/12 02:56:15;;;;;;;;;8.67;7.67;;;;;10.52;81.87;101849.91;5082297;27;45345;-79
2022/10/12 02:58:43;;;;;;;;;11.67;9.67;;;;;10.48;82.20;101847.56;5082340;27;45262;-79
2022/10/12 03:01:09;;;;;;;;;8.33;8.33;;;;;10.53;82.04;101856.94;5097683;27;48548;-79
2022/10/12 03:03:34;;;;;;;;;11.67;9.67;;;;;10.46;81.82;101846.88;5081889;27;45457;-80
2022/10/12 03:06:00;;;;;;;;;7.67;7.67;;;;;10.44;82.16;101859.44;5082319;28;45369;-80
2022/10/12 03:08:25;;;;;;;;;10.00;10.00;;;;;10.44;82.20;101854.13;5082043;28;45322;-80
2022/10/12 03:10:50;;;;;;;;;9.00;8.67;;;;;10.36;82.04;101838.91;5081778;27;45297;-79
2022/10/12 03:13:16;;;;;;;;;11.00;11.00;;;;;10.42;82.08;101849.94;5080564;28;45403;-79
2022/10/12 03:15:41;;;;;;;;;8.33;8.33;;;;;10.42;81.88;101847.28;5080477;28;45342;-79
2022/10/12 03:18:06;;;;;;;;;9.67;9.67;;;;;10.28;81.93;101825.50;5082114;28;45307;-79
2022/10/12 03:20:32;;;;;;;;;9.67;9.67;;;;;10.34;81.86;101840.03;5081777;28;45405;-80
2022/10/12 03:22:57;;;;;;;;;8.67;7.67;;;;;10.36;81.78;101843.41;5081982;28;45549;-79
2022/10/12 03:25:23;;;;;;;;;12.00;11.67;;;;;10.22;81.78;101836.72;5082042;28;45314;-79
2022/10/12 03:27:48;;;;;;;;;10.33;10.33;;;;;10.25;81.86;101840.91;5081917;27;45567;-79
2022/10/12 03:30:14;;;;;;;;;12.00;10.67;;;;;10.13;81.92;101824.28;5081664;27;45994;-79
2022/10/12 03:32:39;;;;;;;;;10.00;10.00;;;;;10.19;82.12;101851.13;5081700;28;45310;-79
2022/10/12 03:35:05;;;;;;;;;12.33;11.00;;;;;10.13;81.84;101841.09;5082109;27;45286;-79
2022/10/12 03:37:31;;;;;;;;;12.33;11.33;;;;;10.06;82.31;101827.53;5081357;27;45408;-80
2022/10/12 03:39:56;;;;;;;;;11.67;11.67;;;;;10.04;82.22;101828.66;5081592;27;46172;-79
2022/10/12 03:42:22;;;;;;;;;11.33;9.67;;;;;10.11;82.06;101848.34;5081667;27;45213;-79
2022/10/12 03:44:47;;;;;;;;;12.67;11.00;;;;;10.03;nan;101834.97;5081322;27;45520;-79
2022/10/12 03:47:13;;;;;;;;;7.00;7.00;;;;;9.88;82.68;101824.81;5080587;27;45488;-79
2022/10/12 03:49:38;;;;;;;;;11.00;10.33;;;;;9.95;82.34;101840.97;5079853;28;47104;-79
2022/10/12 03:52:04;;;;;;;;;9.67;9.67;;;;;9.99;82.61;101855.66;5081751;28;45297;-79
2022/10/12 03:54:29;;;;;;;;;15.00;12.00;;;;;9.90;82.32;101828.13;5081682;28;45291;-80
2022/10/12 03:56:55;;;;;;;;;11.67;10.00;;;;;9.88;82.23;101848.69;5081367;27;45417;-79
2022/10/12 03:59:20;;;;;;;;;15.33;14.33;;;;;9.85;82.63;101841.81;5081309;27;46104;-80
2022/10/12 04:01:46;;;;;;;;;10.00;10.00;;;;;9.85;82.17;101854.28;5081072;27;45300;-79
2022/10/12 04:04:11;;;;;;;;;15.67;12.67;;;;;9.87;81.85;101852.31;5081700;28;45386;-79
2022/10/12 04:06:37;;;;;;;;;10.33;8.67;;;;;9.94;82.18;101863.22;5081024;27;45507;-79
2022/10/12 04:09:03;;;;;;;;;12.33;11.33;;;;;9.79;82.34;101842.41;5081236;28;45775;-79
2022/10/12 04:11:28;;;;;;;;;10.33;10.33;;;;;9.88;82.30;101856.66;5080781;27;45359;-80
2022/10/12 04:13:54;;;;;;;;;11.33;10.00;;;;;9.84;82.24;101850.78;5081038;27;45384;-80
2022/10/12 04:16:19;;;;;;;;;10.33;10.33;;;;;9.88;82.30;101861.13;5080977;27;45523;-80
2022/10/12 04:18:45;;;;;;;;;10.67;8.00;;;;;9.86;82.52;101855.97;5080826;28;45463;-79
2022/10/12 04:21:13;;;;;;;;;12.00;10.33;;;;;9.76;82.34;101845.31;5081180;28;45354;-80
2022/10/12 04:23:39;;;;;;;;;9.33;9.00;;;;;9.76;82.54;101839.19;5081042;27;45347;-79
2022/10/12 04:26:05;;;;;;;;;15.00;11.00;;;;;9.79;82.57;101846.88;5080670;28;45664;-80
2022/10/12 04:28:30;;;;;;;;;10.33;10.00;;;;;9.69;82.17;101834.47;5113847;27;47473;-80
2022/10/12 04:30:55;;;;;;;;;13.33;11.00;;;;;9.65;82.18;101837.53;5080400;28;45380;-80
2022/10/12 04:33:21;;;;;;;;;14.00;11.00;;;;;9.67;82.64;101840.91;5080991;27;45302;-80
2022/10/12 04:35:46;;;;;;;;;12.33;10.33;;;;;9.66;82.21;101836.53;5080651;28;45560;-80
2022/10/12 04:38:12;;;;;;;;;14.00;11.00;;;;;9.64;82.60;101842.00;5080781;27;46094;-80
2022/10/12 04:40:38;;;;;;;;;10.00;10.00;;;;;9.69;82.49;101857.50;5079372;28;45544;-80
2022/10/12 04:43:03;;;;;;;;;14.33;10.67;;;;;9.60;82.54;101843.25;5113778;27;45425;-79
2022/10/12 04:45:28;;;;;;;;;11.33;11.33;;;;;9.59;82.79;101844.25;5080361;28;45286;-79
2022/10/12 04:47:54;;;;;;;;;13.00;11.00;;;;;9.59;82.68;101842.44;5080192;28;45283;-79
2022/10/12 04:50:19;;;;;;;;;11.67;11.67;;;;;9.53;82.43;101845.66;5080602;27;45301;-79
2022/10/12 04:52:45;;;;;;;;;10.33;9.00;;;;;9.58;82.85;101853.19;5080470;27;45335;-80
2022/10/12 04:55:10;;;;;;;;;9.00;9.00;;;;;9.54;82.87;101854.44;5080656;27;45520;-80
2022/10/12 04:57:35;;;;;;;;;9.00;8.33;;;;;9.60;82.71;101860.03;5080343;27;45463;-80
2022/10/12 05:00:01;;;;;;;;;8.33;8.33;;;;;9.55;82.58;101851.63;5080207;28;45400;-79
2022/10/12 05:02:26;;;;;;;;;10.00;8.33;;;;;9.53;82.77;101863.38;5080348;27;45404;-80
2022/10/12 05:04:52;;;;;;;;;9.67;9.33;;;;;9.52;82.87;101851.91;5080030;28;45480;-80
2022/10/12 05:07:17;;;;;;;;;9.33;9.00;;;;;9.53;82.72;101858.06;5080412;27;45658;-80
2022/10/12 05:09:42;;;;;;;;;11.67;9.67;;;;;9.52;82.67;101865.19;5080005;27;45335;-79
2022/10/12 05:12:08;;;;;;;;;10.00;10.00;;;;;9.52;82.72;101862.53;5080240;27;45472;-79
2022/10/12 05:14:33;;;;;;;;;13.33;12.67;;;;;9.49;82.51;101862.84;5080018;27;45330;-79
2022/10/12 05:16:59;;;;;;;;;13.00;11.00;;;;;9.43;82.53;101861.56;5095758;27;47252;-79
2022/10/12 05:19:24;;;;;;;;;15.00;14.00;;;;;9.37;82.63;101851.50;5078961;28;45712;-77
2022/10/12 05:21:50;;;;;;;;;11.33;11.33;;;;;9.39;82.78;101856.66;5106479;27;45966;-79
2022/10/12 05:24:15;;;;;;;;;8.67;8.67;;;;;9.37;83.14;101854.13;5078430;28;46165;-79
2022/10/12 05:26:40;;;;;;;;;13.00;12.33;;;;;9.34;83.02;101846.50;5077132;28;46928;-79
2022/10/12 05:29:06;;;;;;;;;11.00;11.00;;;;;9.32;83.05;101843.97;5079005;27;45392;-79
2022/10/12 05:31:31;;;;;;;;;11.67;10.67;;;;;9.19;82.82;101824.84;5078546;28;45350;-79
2022/10/12 05:33:56;;;;;;;;;13.67;12.33;;;;;9.36;83.35;101860.44;5079702;28;45441;-79
2022/10/12 05:36:22;;;;;;;;;14.67;14.00;;;;;9.27;83.31;101850.66;5078718;28;48160;-79
2022/10/12 05:38:47;;;;;;;;;17.00;14.33;;;;;9.29;82.97;101851.34;5079798;27;45297;-80
2022/10/12 05:41:13;;;;;;;;;15.33;13.67;;;;;9.31;83.14;101852.06;5078632;28;45354;-78
2022/10/12 05:43:38;;;;;;;;;15.00;12.67;;;;;9.29;83.15;101854.00;5079732;28;45357;-78
2022/10/12 05:46:04;;;;;;;;;12.67;10.33;;;;;9.33;82.63;101864.22;5079277;28;45346;-78
2022/10/12 05:48:30;;;;;;;;;14.67;13.00;;;;;9.31;82.88;101860.84;5079750;27;45374;-77
2022/10/12 05:50:55;;;;;;;;;20.00;16.00;;;;;9.09;83.33;101824.81;5112748;27;45299;-77
2022/10/12 05:53:21;;;;;;;;;15.00;13.67;;;;;9.20;83.29;101850.38;5080089;28;45295;-78
2022/10/12 05:56:00;;;;;;;;;12.33;12.00;;;;;9.26;83.24;101863.09;5078230;28;47026;-78
2022/10/12 05:58:28;;;;;;;;;14.67;13.33;;;;;9.15;83.19;101848.13;5077180;27;45489;-78
2022/10/12 06:00:54;;;;;;;;;14.33;14.00;;;;;9.30;83.24;101869.78;5078575;28;45373;-78
2022/10/12 06:03:20;;;;;;;;;14.00;14.00;;;;;9.28;83.60;101865.59;5079502;27;45475;-79
2022/10/12 06:05:46;;;;;;;;;18.00;13.67;;;;;9.23;83.94;101863.38;5079934;27;45268;-78
2022/10/12 06:08:12;;;;;;;;;13.67;9.67;;;;;9.26;83.38;101867.53;5094885;27;45437;-78
2022/10/12 06:10:44;;;;;;;;;16.67;16.33;;;;;9.26;83.31;101862.25;5078857;27;45377;-78
2022/10/12 06:13:09;;;;;;;;;17.00;17.00;;;;;9.20;83.22;101855.69;5079128;28;45467;-79
2022/10/12 06:15:35;;;;;;;;;17.67;17.33;;;;;9.21;83.59;101852.88;5077348;28;46976;-79
2022/10/12 06:18:00;;;;;;;;;15.67;14.00;;;;;9.19;83.61;101849.53;5112084;27;46096;-78
2022/10/12 06:20:26;;;;;;;;;20.67;16.67;;;;;9.24;83.43;101857.06;5078202;28;45390;-78
2022/10/12 06:22:51;;;;;;;;;17.00;16.00;;;;;9.15;83.96;101850.78;5078851;27;45297;-79
2022/10/12 06:25:17;;;;;;;;;20.67;20.67;;;;;9.25;83.64;101868.53;5079902;28;45329;-76
2022/10/12 06:27:44;;;;;;;;;26.33;22.33;;;;;9.22;83.84;101854.56;5079786;27;45325;-75
2022/10/12 06:30:10;;;;;;;;;26.00;25.50;;;;;9.26;84.31;101863.09;5111966;27;45440;-76
2022/10/12 06:32:36;;;;;;;;;28.25;27.75;;;;;9.25;84.29;101860.56;5077638;27;45466;-76
2022/10/12 06:35:01;;;;;;;;;22.67;22.00;;;;;9.22;84.14;101856.38;5085160;27;45361;-78
2022/10/12 06:37:28;;;;;;;;;27.00;25.75;;;;;9.24;84.58;101857.06;5078226;28;45330;-78
2022/10/12 06:39:54;;;;;;;;;24.75;23.25;;;;;9.32;84.42;101870.50;5079440;28;45324;-78
2022/10/12 06:42:20;;;;;;;;;27.25;24.50;;;;;9.34;84.63;101867.72;5078307;28;45548;-79
2022/10/12 06:44:45;;;;;;;;;19.00;19.00;;;;;9.24;84.85;101850.91;5078430;27;45448;-79
2022/10/12 06:47:11;;;;;;;;;23.33;23.00;;;;;9.28;85.18;101861.13;5076054;27;45382;-80
2022/10/12 06:49:36;;;;;;;;;21.00;19.67;;;;;9.33;84.82;101882.78;5072416;28;45621;-80
2022/10/12 06:52:02;;;;;;;;;25.25;25.00;;;;;9.19;85.19;101862.78;5081833;27;45472;-78
2022/10/12 06:54:27;;;;;;;;;25.67;21.33;;;;;9.31;85.85;101879.41;5077209;27;47173;-79
2022/10/12 06:56:53;;;;;;;;;27.00;24.67;;;;;9.29;85.77;101873.44;5078701;27;45438;-77
2022/10/12 06:59:19;;;;;;;;;24.67;24.33;;;;;9.45;85.68;101890.59;5097421;27;45373;-78
2022/10/12 07:01:44;;;;;;;;;28.00;25.25;;;;;9.50;85.95;101890.19;5084138;27;45518;-78
2022/10/12 07:04:09;;;;;;;;;21.33;19.67;;;;;9.47;85.36;101873.59;5078767;27;46289;-78
2022/10/12 07:06:35;;;;;;;;;22.00;22.00;;;;;9.51;85.46;101878.59;5091217;27;45268;-78
2022/10/12 07:09:00;;;;;;;;;21.67;20.67;;;;;9.62;85.65;101888.25;5109784;27;45631;-79
2022/10/12 07:11:26;;;;;;;;;20.67;20.67;;;;;9.54;85.37;101867.69;5078807;27;45505;-78
2022/10/12 07:13:51;;;;;;;;;25.33;23.00;;;;;9.62;85.75;101877.63;5079421;28;48600;-80
2022/10/12 07:16:16;;;;;;;;;20.33;19.33;;;;;9.63;85.76;101882.78;5078629;28;45279;-78
2022/10/12 07:18:42;;;;;;;;;29.50;25.25;;;;;9.71;85.58;101895.38;5071597;28;45455;-82
2022/10/12 07:21:07;;;;;;;;;24.00;21.00;;;;;9.73;85.96;101902.22;5076628;28;47344;-80
2022/10/12 07:23:33;;;;;;;;;20.67;18.00;;;;;9.78;85.87;101907.09;5073404;28;45849;-79
2022/10/12 07:25:59;;;;;;;;;21.33;20.33;;;;;9.81;86.11;101913.94;5080932;27;45473;-79
2022/10/12 07:28:25;;;;;;;;;27.00;23.25;;;;;9.79;86.01;101911.44;5082343;27;45361;-79
2022/10/12 07:30:51;;;;;;;;;30.33;26.33;;;;;9.87;86.16;101916.03;5081083;27;45471;-79
2022/10/12 07:33:16;;;;;;;;;30.00;25.33;;;;;9.90;86.51;101905.13;5081352;27;45408;-79
2022/10/12 07:35:41;;;;;;;;;28.00;22.33;;;;;10.04;86.44;101909.19;5072569;28;45409;-78
2022/10/12 07:38:07;;;;;;;;;23.67;23.67;;;;;10.12;86.71;101910.28;5114385;27;45275;-78
2022/10/12 07:40:32;;;;;;;;;33.00;31.00;;;;;10.03;86.66;101893.41;5083301;27;45275;-78
2022/10/12 07:42:58;;;;;;;;;35.50;29.50;;;;;10.17;86.73;101905.38;5098134;27;47332;-78
2022/10/12 07:45:24;;;;;;;;;28.25;25.00;;;;;10.27;86.92;101922.16;5081244;27;45391;-78
2022/10/12 07:47:49;;;;;;;;;33.25;31.00;;;;;10.26;87.38;101914.34;5081980;27;45517;-79
2022/10/12 07:50:15;;;;;;;;;39.00;33.75;;;;;10.25;87.74;101892.22;5081795;27;45781;-79
2022/10/12 07:52:40;;;;;;;;;37.25;33.25;;;;;10.49;87.04;101914.84;5098357;27;47380;-79
2022/10/12 07:55:06;;;;;;;;;37.00;33.75;;;;;10.58;87.38;101929.09;5083843;27;45319;-79
2022/10/12 07:57:32;;;;;;;;;37.00;30.75;;;;;10.64;87.57;101923.19;5079018;28;46786;-80
2022/10/12 07:59:57;;;;;;;;;36.75;33.25;;;;;10.73;87.41;101927.66;5076039;28;45507;-82
2022/10/12 08:02:23;;;;;;;;;37.00;33.50;;;;;10.92;87.69;101933.84;5127607;27;47444;-81
2022/10/12 08:04:48;;;;;;;;;47.00;37.50;;;;;10.98;87.45;101925.28;5083238;28;45306;-81
2022/10/12 08:07:13;;;;;;;;;44.75;35.75;;;;;11.06;87.40;101921.03;5083466;27;45602;-80
2022/10/12 08:09:39;;;;;;;;;38.75;33.25;;;;;11.21;87.67;101937.34;5081779;28;45319;-81
2022/10/12 08:12:04;;;;;;;;;38.00;33.00;;;;;11.30;87.74;101939.13;5082354;28;46141;-81
2022/10/12 08:14:30;;;;;;;;;51.25;42.50;;;;;11.34;87.62;101929.84;5081691;27;45220;-79
2022/10/12 08:16:55;;;;;;;;;54.00;44.75;;;;;11.42;87.37;101937.09;5077998;27;45528;-80
2022/10/12 08:19:21;;;;;;;;;55.25;45.25;;;;;11.40;87.70;101925.75;5097243;27;45900;-80
2022/10/12 08:21:48;;;;;;;;;55.50;43.00;;;;;11.36;87.66;101898.59;5080648;28;46779;-79
2022/10/12 08:24:14;;;;;;;;;58.00;45.75;;;;;11.56;87.80;101933.06;5081349;27;45377;-81
2022/10/12 08:26:39;;;;;;;;;49.25;41.50;;;;;11.62;87.81;101924.44;5096674;27;45437;-82
2022/10/12 08:29:07;;;;;;;;;55.50;46.00;;;;;11.71;87.74;101928.03;5079301;28;45772;-81
2022/10/12 08:31:33;;;;;;;;;53.75;41.00;;;;;11.85;87.73;101939.13;5080632;27;45464;-81
2022/10/12 08:33:59;;;;;;;;;49.50;41.75;;;;;11.90;87.43;101942.19;5092790;27;45816;-80
2022/10/12 08:36:24;;;;;;;;;50.50;42.00;;;;;11.87;87.64;101929.16;5079633;28;45423;-83
2022/10/12 08:38:52;;;;;;;;;48.25;40.50;;;;;11.94;87.62;101929.41;5080489;28;45252;-80
2022/10/12 08:41:37;;;;;;;;;51.75;39.75;;;;;12.09;87.58;101948.38;5080740;27;46596;-80
2022/10/12 08:44:27;;;;;;;;;50.00;39.75;;;;;12.15;87.55;101945.06;5080974;28;45353;-82
2022/10/12 08:47:05;;;;;;;;;47.75;36.75;;;;;12.22;87.73;101945.28;5096590;27;45336;-81
2022/10/12 08:49:32;;;;;;;;;40.50;33.50;;;;;12.24;87.53;101944.16;5077409;27;45457;-79
2022/10/12 08:52:05;;;;;;;;;40.75;35.25;;;;;12.35;87.40;101947.53;5086204;27;45432;-80
2022/10/12 08:54:42;;;;;;;;;38.25;34.50;;;;;12.41;87.46;101946.91;5083035;27;45231;-81
2022/10/12 08:57:15;;;;;;;;;39.00;33.25;;;;;12.49;87.74;101949.63;5080801;27;45406;-81
2022/10/12 08:59:41;;;;;;;;;32.25;30.00;;;;;12.53;87.51;101934.16;5081180;27;45288;-80
2022/10/12 09:02:20;;;;;;;;;40.00;32.50;;;;;12.57;87.10;101942.69;5116422;27;46192;-81
2022/10/12 09:04:52;;;;;;;;;32.33;30.00;;;;;12.69;86.97;101952.06;5098275;27;45410;-83
2022/10/12 09:07:32;;;;;;;;;37.50;32.50;;;;;12.63;87.33;101934.03;5083873;27;45331;-83
2022/10/12 09:10:22;;;;;;;;;33.33;31.00;;;;;12.83;87.05;101958.66;5083202;27;45401;-83
2022/10/12 09:12:54;;;;;;;;;30.33;30.00;;;;;12.93;87.16;101958.53;5083311;28;46143;-84
2022/10/12 09:15:19;;;;;;;;;35.25;31.50;;;;;13.01;87.18;101957.72;5086004;27;45296;-84
2022/10/12 09:17:59;;;;;;;;;33.67;32.00;;;;;13.06;86.88;101949.25;5079102;27;45364;-82
2022/10/12 09:20:30;;;;;;;;;32.67;30.67;;;;;13.16;86.72;101954.44;5078980;28;47168;-84
2022/10/12 09:23:22;;;;;;;;;33.00;31.33;;;;;13.27;86.60;101946.16;5095753;27;47584;-83
2022/10/12 09:25:49;;;;;;;;;32.00;30.33;;;;;13.34;86.49;101940.97;5072464;27;45442;-83
2022/10/12 09:28:27;;;;;;;;;36.33;31.67;;;;;13.42;86.53;101943.69;5083487;28;45465;-82
2022/10/12 09:30:59;;;;;;;;;33.00;30.67;;;;;13.54;86.43;101948.72;5112655;27;46291;-81
2022/10/12 09:33:39;;;;;;;;;32.67;29.00;;;;;13.60;86.26;101932.06;5079791;27;45354;-78
2022/10/12 09:36:07;;;;;;;;;28.33;26.00;;;;;13.66;86.21;101936.75;5097193;27;45833;-79
2022/10/12 09:38:32;;;;;;;;;28.33;26.33;;;;;13.79;86.14;101935.38;5088376;28;45341;-82
2022/10/12 09:40:57;;;;;;;;;26.67;25.00;;;;;13.71;86.00;101898.84;5093406;28;45461;-80
2022/10/12 09:43:23;;;;;;;;;26.00;26.00;;;;;14.00;85.47;101910.84;5087242;28;46114;-81
2022/10/12 09:45:49;;;;;;;;;27.67;25.67;;;;;14.12;85.31;101909.50;5089793;28;45260;-82
2022/10/12 09:48:20;;;;;;;;;21.67;20.33;;;;;14.31;85.02;101915.47;5086352;27;45325;-82
2022/10/12 09:50:58;;;;;;;;;19.67;19.00;;;;;14.50;85.06;101914.28;5085827;27;45493;-84
2022/10/12 09:53:35;;;;;;;;;26.00;22.67;;;;;14.63;84.96;101908.38;5081783;27;45427;-82
2022/10/12 09:56:21;;;;;;;;;24.33;23.33;;;;;14.61;84.54;101880.94;5082540;27;45342;-82
2022/10/12 09:58:57;;;;;;;;;27.67;24.00;;;;;14.82;84.27;101881.41;5083211;27;45273;-83
2022/10/12 10:01:28;;;;;;;;;23.00;21.33;;;;;15.02;83.78;101893.34;5084720;27;45347;-80
2022/10/12 10:04:10;;;;;;;;;19.67;18.67;;;;;15.12;83.55;101895.78;5084160;27;47770;-80
2022/10/12 10:06:38;;;;;;;;;19.67;19.00;;;;;15.09;83.12;101874.72;5086509;27;45381;-81
2022/10/12 10:09:04;;;;;;;;;22.00;22.00;;;;;15.24;82.83;101885.50;5084803;27;45323;-81
2022/10/12 10:11:30;;;;;;;;;20.00;19.00;;;;;15.19;82.52;101870.97;5087190;27;45259;-82
2022/10/12 10:13:58;;;;;;;;;21.00;20.33;;;;;15.32;82.61;101889.16;5088786;27;45331;-82
2022/10/12 10:16:26;;;;;;;;;20.00;19.00;;;;;15.39;82.51;101895.47;5083166;27;45235;-82
2022/10/12 10:18:51;;;;;;;;;19.33;18.00;;;;;15.52;82.92;101906.44;5097010;27;45640;-83
2022/10/12 10:21:35;;;;;;;;;20.00;17.00;;;;;15.59;82.91;101909.22;5080143;28;45409;-83
2022/10/12 10:24:03;;;;;;;;;21.67;20.33;;;;;15.65;82.54;101888.91;5079341;27;45427;-83
2022/10/12 10:26:50;;;;;;;;;21.67;21.67;;;;;15.79;82.26;101889.97;5079897;27;45381;-82
2022/10/12 10:29:31;;;;;;;;;21.00;19.67;;;;;15.66;82.22;101850.38;5081067;28;45400;-81
2022/10/12 10:32:25;;;;;;;;;17.67;16.33;;;;;16.02;81.84;101883.75;5077232;27;45579;-80
2022/10/12 10:35:05;;;;;;;;;16.33;16.33;;;;;16.16;81.55;101882.09;5082556;27;45504;-82
2022/10/12 10:37:30;;;;;;;;;18.00;18.00;;;;;16.29;81.33;101873.44;5082974;28;45374;-82
2022/10/12 10:39:57;;;;;;;;;17.33;16.00;;;;;16.44;81.09;101875.25;5084607;27;44649;-83
2022/10/12 10:42:30;;;;;;;;;22.00;19.00;;;;;16.66;80.87;101878.84;5095321;27;45725;-83
2022/10/12 10:45:00;;;;;;;;;18.00;16.33;;;;;16.87;79.99;101890.66;5082801;27;45988;-83
2022/10/12 10:47:26;;;;;;;;;15.00;15.00;;;;;16.97;78.86;101872.38;5082127;27;45478;-84
2022/10/12 10:49:58;;;;;;;;;17.00;16.67;;;;;17.15;79.15;101866.63;5080052;27;45268;-85
2022/10/12 10:52:32;;;;;;;;;17.33;16.00;;;;;17.32;78.76;101868.22;5081589;27;45278;-82
2022/10/12 10:55:10;;;;;;;;;19.50;18.50;;;;;17.54;78.13;101882.50;5079547;27;46144;-83
2022/10/12 10:57:52;;;;;;;;;18.67;18.00;;;;;17.66;78.18;101878.25;5082541;28;45372;-81
2022/10/12 11:00:20;;;;;;;;;18.00;17.00;;;;;17.79;76.81;101879.41;5084522;27;45716;-83
2022/10/12 11:02:55;;;;;;;;;19.00;17.33;;;;;17.86;75.52;101874.91;5082452;27;45287;-82
2022/10/12 11:05:28;;;;;;;;;20.67;19.00;;;;;18.05;75.89;101880.63;5074732;27;45501;-81
2022/10/12 11:07:56;;;;;;;;;21.00;18.33;;;;;18.13;75.00;101874.28;5083403;27;45414;-82
2022/10/12 11:10:34;;;;;;;;;16.00;15.33;;;;;18.16;72.81;101863.97;5087749;27;45310;-81
2022/10/12 11:13:10;;;;;;;;;19.33;17.00;;;;;18.34;73.87;101884.13;5094668;27;45261;-82
2022/10/12 11:15:45;;;;;;;;;16.00;15.67;;;;;18.44;73.79;101881.09;5090793;28;47302;-79
2022/10/12 11:18:39;;;;;;;;;22.00;15.67;;;;;18.54;74.17;101869.94;5090331;28;45227;-82
2022/10/12 11:21:14;;;;;;;;;16.67;16.67;;;;;18.64;73.97;101867.72;5086373;27;45343;-82
2022/10/12 11:23:49;;;;;;;;;19.33;18.67;;;;;18.76;73.00;101864.44;5086962;27;45228;-83
2022/10/12 11:26:18;;;;;;;;;16.67;16.00;;;;;18.85;72.68;101863.22;5082880;27;46174;-79